sensor_id;sensor_type;location;lat;lon;timestamp;pressure;altitude;pressure_sealevel;temperature;humidity
36980;BME280;22891;50.562;7.272;2023-02-16T05:44:53;100731.00;;;-0.94;nan
36980;BME280;22891;50.562;7.272;2023-02-16T05:47:18;100558.00;;;-0.96;nan
36980;BME280;22891;50.562;7.272;2023-02-16T05:49:44;100563.00;;;-0.62;nan
36980;BME280;22891;50.562;7.272;2023-02-16T05:52:10;100579.00;;;-0.65;nan
36980;BME280;22891;50.562;7.272;2023-02-16T05:54:35;100579.00;;;-0.80;nan
36980;BME280;22891;50.562;7.272;2023-02-16T05:57:01;100571.00;;;-0.85;nan
36980;BME280;22891;50.562;7.272;2023-02-16T05:59:27;100580.00;;;-0.83;nan
36980;BME280;22891;50.562;7.272;2023-02-16T06:01:53;100559.00;;;-0.89;nan
36980;BME280;22891;50.562;7.272;2023-02-16T06:04:20;100571.00;;;-0.98;nan
36980;BME280;22891;50.562;7.272;2023-02-16T06:06:46;100585.00;;;-0.95;nan
36980;BME280;22891;50.562;7.272;2023-02-16T06:09:12;100589.00;;;-0.96;nan
36980;BME280;22891;50.562;7.272;2023-02-16T06:11:38;100555.00;;;-1.13;nan
36980;BME280;22891;50.562;7.272;2023-02-16T06:14:15;100549.00;;;-1.29;nan
36980;BME280;22891;50.562;7.272;2023-02-16T06:16:43;100560.00;;;-1.23;nan
36980;BME280;22891;50.562;7.272;2023-02-16T06:19:10;100452.00;;;-1.22;nan
36980;BME280;22891;50.562;7.272;2023-02-16T06:21:36;100467.00;;;-1.29;nan
36980;BME280;22891;50.562;7.272;2023-02-16T06:24:03;100524.00;;;-1.22;nan
36980;BME280;22891;50.562;7.272;2023-02-16T06:26:29;100529.00;;;-1.11;nan
36980;BME280;22891;50.562;7.272;2023-02-16T06:28:55;100547.00;;;-1.15;nan
36980;BME280;22891;50.562;7.272;2023-02-16T06:31:21;100554.00;;;-1.17;nan
36980;BME280;22891;50.562;7.272;2023-02-16T06:33:47;100554.00;;;-1.11;nan
36980;BME280;22891;50.562;7.272;2023-02-16T06:36:13;100559.00;;;-1.11;nan
36980;BME280;22891;50.562;7.272;2023-02-16T06:38:39;100573.00;;;-0.96;nan
36980;BME280;22891;50.562;7.272;2023-02-16T06:41:05;100581.00;;;-1.01;nan
36980;BME280;22891;50.562;7.272;2023-02-16T06:43:31;100580.00;;;-1.26;nan
36980;BME280;22891;50.562;7.272;2023-02-16T06:45:57;100565.00;;;-1.17;nan
36980;BME280;22891;50.562;7.272;2023-02-16T06:48:23;100567.00;;;-1.21;nan
36980;BME280;22891;50.562;7.272;2023-02-16T06:50:50;100578.00;;;-1.03;nan
36980;BME280;22891;50.562;7.272;2023-02-16T06:53:15;100557.00;;;-1.00;nan
36980;BME280;22891;50.562;7.272;2023-02-16T06:55:42;100578.00;;;-1.00;nan
36980;BME280;22891;50.562;7.272;2023-02-16T06:58:08;100584.00;;;-0.99;nan
36980;BME280;22891;50.562;7.272;2023-02-16T07:00:34;100576.00;;;-1.13;nan
36980;BME280;22891;50.562;7.272;2023-02-16T07:02:59;100566.00;;;-1.04;nan
36980;BME280;22891;50.562;7.272;2023-02-16T07:05:25;100562.00;;;-1.31;nan
36980;BME280;22891;50.562;7.272;2023-02-16T07:07:51;100580.00;;;-1.26;nan
36980;BME280;22891;50.562;7.272;2023-02-16T07:10:17;100563.00;;;-1.09;nan
36980;BME280;22891;50.562;7.272;2023-02-16T07:12:44;100586.00;;;-1.01;nan
36980;BME280;22891;50.562;7.272;2023-02-16T07:15:10;100578.00;;;-0.94;nan
36980;BME280;22891;50.562;7.272;2023-02-16T07:17:36;100581.00;;;-0.85;nan
36980;BME280;22891;50.562;7.272;2023-02-16T07:20:02;100574.00;;;-0.80;nan
36980;BME280;22891;50.562;7.272;2023-02-16T07:22:29;100592.00;;;-0.76;nan
36980;BME280;22891;50.562;7.272;2023-02-16T07:24:55;100610.00;;;-0.49;nan
36980;BME280;22891;50.562;7.272;2023-02-16T07:27:22;100622.00;;;-0.42;nan
36980;BME280;22891;50.562;7.272;2023-02-16T07:29:48;100617.00;;;-0.36;nan
36980;BME280;22891;50.562;7.272;2023-02-16T07:32:14;100642.00;;;-0.18;nan
36980;BME280;22891;50.562;7.272;2023-02-16T07:34:39;100613.00;;;-0.16;nan
36980;BME280;22891;50.562;7.272;2023-02-16T07:37:05;100422.00;;;-0.11;nan
36980;BME280;22891;50.562;7.272;2023-02-16T07:39:31;100194.00;;;-0.11;nan
36980;BME280;22891;50.562;7.272;2023-02-16T07:41:57;100416.00;;;-0.24;nan
36980;BME280;22891;50.562;7.272;2023-02-16T07:44:22;100461.00;;;0.04;nan
36980;BME280;22891;50.562;7.272;2023-02-16T07:46:48;100448.00;;;0.11;nan
36980;BME280;22891;50.562;7.272;2023-02-16T07:49:14;100584.00;;;0.40;nan
36980;BME280;22891;50.562;7.272;2023-02-16T07:51:39;100547.00;;;0.56;nan
36980;BME280;22891;50.562;7.272;2023-02-16T07:54:05;100466.00;;;0.71;nan
36980;BME280;22891;50.562;7.272;2023-02-16T07:56:32;100466.00;;;0.71;nan
36980;BME280;22891;50.562;7.272;2023-02-16T07:59:00;100320.00;;;1.08;nan
36980;BME280;22891;50.562;7.272;2023-02-16T08:03:52;100789.00;;;1.38;nan
36980;BME280;22891;50.562;7.272;2023-02-16T08:06:18;100786.00;;;1.65;nan
36980;BME280;22891;50.562;7.272;2023-02-16T08:08:45;100786.00;;;1.65;nan
36980;BME280;22891;50.562;7.272;2023-02-16T08:11:22;100797.00;;;1.77;nan
36980;BME280;22891;50.562;7.272;2023-02-16T08:13:48;100806.00;;;1.64;nan
36980;BME280;22891;50.562;7.272;2023-02-16T08:16:19;100802.00;;;1.71;nan
36980;BME280;22891;50.562;7.272;2023-02-16T08:18:45;100808.00;;;1.66;nan
36980;BME280;22891;50.562;7.272;2023-02-16T08:21:13;100802.00;;;1.84;nan
36980;BME280;22891;50.562;7.272;2023-02-16T08:23:48;100802.00;;;1.90;nan
36980;BME280;22891;50.562;7.272;2023-02-16T08:26:17;100793.00;;;2.12;nan
36980;BME280;22891;50.562;7.272;2023-02-16T08:28:45;100806.00;;;1.89;nan
36980;BME280;22891;50.562;7.272;2023-02-16T08:31:13;100776.00;;;1.93;nan
36980;BME280;22891;50.562;7.272;2023-02-16T08:33:39;100800.00;;;1.97;nan
36980;BME280;22891;50.562;7.272;2023-02-16T08:36:06;100792.00;;;2.15;nan
36980;BME280;22891;50.562;7.272;2023-02-16T08:38:34;100803.00;;;2.27;nan
36980;BME280;22891;50.562;7.272;2023-02-16T08:44:54;100805.00;;;2.41;nan
36980;BME280;22891;50.562;7.272;2023-02-16T08:47:20;100805.00;;;2.41;nan
36980;BME280;22891;50.562;7.272;2023-02-16T08:51:35;100821.00;;;2.48;nan
36980;BME280;22891;50.562;7.272;2023-02-16T09:06:07;100810.00;;;2.22;nan
36980;BME280;22891;50.562;7.272;2023-02-16T09:08:33;100823.00;;;2.24;nan
36980;BME280;22891;50.562;7.272;2023-02-16T09:11:07;100832.00;;;2.29;nan
36980;BME280;22891;50.562;7.272;2023-02-16T09:14:03;100834.00;;;2.12;nan
36980;BME280;22891;50.562;7.272;2023-02-16T09:16:32;100834.00;;;2.12;nan
36980;BME280;22891;50.562;7.272;2023-02-16T09:19:03;100775.00;;;1.95;nan
36980;BME280;22891;50.562;7.272;2023-02-16T09:21:30;100813.00;;;1.93;nan
36980;BME280;22891;50.562;7.272;2023-02-16T09:24:02;100812.00;;;2.05;nan
36980;BME280;22891;50.562;7.272;2023-02-16T09:26:35;100813.00;;;2.40;nan
36980;BME280;22891;50.562;7.272;2023-02-16T09:29:03;100812.00;;;2.31;nan
36980;BME280;22891;50.562;7.272;2023-02-16T09:31:31;100808.00;;;2.55;nan
36980;BME280;22891;50.562;7.272;2023-02-16T09:34:01;100813.00;;;2.68;nan
36980;BME280;22891;50.562;7.272;2023-02-16T09:36:27;100832.00;;;2.79;nan
36980;BME280;22891;50.562;7.272;2023-02-16T09:38:54;100845.00;;;2.62;nan
36980;BME280;22891;50.562;7.272;2023-02-16T09:45:11;100847.00;;;2.94;nan
36980;BME280;22891;50.562;7.272;2023-02-16T09:47:45;100849.00;;;2.90;nan
36980;BME280;22891;50.562;7.272;2023-02-16T09:50:20;100869.00;;;2.89;nan
36980;BME280;22891;50.562;7.272;2023-02-16T09:52:52;100871.00;;;3.02;nan
36980;BME280;22891;50.562;7.272;2023-02-16T09:55:20;100890.00;;;3.06;nan
36980;BME280;22891;50.562;7.272;2023-02-16T10:04:49;100882.00;;;3.08;nan
36980;BME280;22891;50.562;7.272;2023-02-16T10:15:20;101068.00;;;5.95;nan
36980;BME280;22891;50.562;7.272;2023-02-16T10:37:33;101135.00;;;5.54;nan
36980;BME280;22891;50.562;7.272;2023-02-16T10:40:26;101135.00;;;5.54;nan
36980;BME280;22891;50.562;7.272;2023-02-16T10:43:20;101621.00;;;8.14;nan
36980;BME280;22891;50.562;7.272;2023-02-16T10:45:51;101621.00;;;8.14;nan
36980;BME280;22891;50.562;7.272;2023-02-16T10:59:45;101595.00;;;6.83;nan
36980;BME280;22891;50.562;7.272;2023-02-16T11:02:37;101480.00;;;6.55;nan
36980;BME280;22891;50.562;7.272;2023-02-16T11:05:49;101480.00;;;6.55;nan
36980;BME280;22891;50.562;7.272;2023-02-16T11:08:15;101435.00;;;6.09;nan
36980;BME280;22891;50.562;7.272;2023-02-16T11:10:47;101446.00;;;6.06;nan
36980;BME280;22891;50.562;7.272;2023-02-16T11:13:36;101407.00;;;5.96;nan
36980;BME280;22891;50.562;7.272;2023-02-16T11:18:45;101373.00;;;6.44;nan
36980;BME280;22891;50.562;7.272;2023-02-16T11:21:14;101410.00;;;6.53;nan
36980;BME280;22891;50.562;7.272;2023-02-16T11:23:42;101412.00;;;6.45;nan
36980;BME280;22891;50.562;7.272;2023-02-16T11:26:25;101199.00;;;6.46;nan
36980;BME280;22891;50.562;7.272;2023-02-16T11:29:06;101423.00;;;6.58;nan
36980;BME280;22891;50.562;7.272;2023-02-16T11:31:42;101414.00;;;6.81;nan
36980;BME280;22891;50.562;7.272;2023-02-16T11:34:51;101452.00;;;7.22;nan
36980;BME280;22891;50.562;7.272;2023-02-16T11:39:56;101444.00;;;7.21;nan
36980;BME280;22891;50.562;7.272;2023-02-16T11:42:56;101457.00;;;7.19;nan
36980;BME280;22891;50.562;7.272;2023-02-16T11:45:42;101481.00;;;7.17;nan
36980;BME280;22891;50.562;7.272;2023-02-16T11:48:13;101496.00;;;7.24;nan
36980;BME280;22891;50.562;7.272;2023-02-16T11:50:54;101477.00;;;7.22;nan
36980;BME280;22891;50.562;7.272;2023-02-16T11:53:26;101403.00;;;7.30;nan
36980;BME280;22891;50.562;7.272;2023-02-16T11:56:09;101412.00;;;7.20;nan
36980;BME280;22891;50.562;7.272;2023-02-16T11:58:37;101429.00;;;7.05;nan
36980;BME280;22891;50.562;7.272;2023-02-16T12:01:26;101419.00;;;6.87;nan
36980;BME280;22891;50.562;7.272;2023-02-16T12:09:02;101383.00;;;7.29;nan
36980;BME280;22891;50.562;7.272;2023-02-16T12:16:35;101319.00;;;7.43;nan
36980;BME280;22891;50.562;7.272;2023-02-16T12:19:15;101338.00;;;7.60;nan
36980;BME280;22891;50.562;7.272;2023-02-16T12:21:50;101323.00;;;7.64;nan
36980;BME280;22891;50.562;7.272;2023-02-16T12:25:11;101312.00;;;7.60;nan
36980;BME280;22891;50.562;7.272;2023-02-16T12:34:05;101240.00;;;7.41;nan
36980;BME280;22891;50.562;7.272;2023-02-16T12:37:06;101198.00;;;7.75;nan
36980;BME280;22891;50.562;7.272;2023-02-16T12:41:13;101229.00;;;7.83;nan
36980;BME280;22891;50.562;7.272;2023-02-16T12:43:47;101230.00;;;7.89;nan
36980;BME280;22891;50.562;7.272;2023-02-16T12:46:43;101244.00;;;7.76;nan
36980;BME280;22891;50.562;7.272;2023-02-16T12:52:27;101273.00;;;7.90;nan
36980;BME280;22891;50.562;7.272;2023-02-16T12:55:15;101235.00;;;7.86;nan
36980;BME280;22891;50.562;7.272;2023-02-16T13:00:23;101235.00;;;7.64;nan
36980;BME280;22891;50.562;7.272;2023-02-16T13:03:04;101205.00;;;7.68;nan
36980;BME280;22891;50.562;7.272;2023-02-16T13:05:35;101214.00;;;7.80;nan
36980;BME280;22891;50.562;7.272;2023-02-16T13:08:16;101224.00;;;7.80;nan
36980;BME280;22891;50.562;7.272;2023-02-16T13:10:57;101200.00;;;7.59;nan
36980;BME280;22891;50.562;7.272;2023-02-16T13:13:31;101185.00;;;7.60;nan
36980;BME280;22891;50.562;7.272;2023-02-16T13:16:52;101218.00;;;7.54;nan
36980;BME280;22891;50.562;7.272;2023-02-16T13:19:20;101188.00;;;7.30;nan
36980;BME280;22891;50.562;7.272;2023-02-16T13:25:26;101185.00;;;7.25;nan
36980;BME280;22891;50.562;7.272;2023-02-16T13:32:45;101190.00;;;7.66;nan
36980;BME280;22891;50.562;7.272;2023-02-16T13:41:18;101181.00;;;7.73;nan
36980;BME280;22891;50.562;7.272;2023-02-16T13:43:59;101135.00;;;7.61;nan
36980;BME280;22891;50.562;7.272;2023-02-16T13:46:30;101116.00;;;7.49;nan
36980;BME280;22891;50.562;7.272;2023-02-16T13:48:57;101094.00;;;7.39;nan
36980;BME280;22891;50.562;7.272;2023-02-16T13:51:27;101060.00;;;7.44;nan
36980;BME280;22891;50.562;7.272;2023-02-16T13:54:04;101067.00;;;7.51;nan
36980;BME280;22891;50.562;7.272;2023-02-16T13:56:36;101043.00;;;7.40;nan
36980;BME280;22891;50.562;7.272;2023-02-16T14:05:26;100971.00;;;7.34;nan
36980;BME280;22891;50.562;7.272;2023-02-16T14:08:27;100985.00;;;7.43;nan
36980;BME280;22891;50.562;7.272;2023-02-16T14:11:01;100965.00;;;7.47;nan
36980;BME280;22891;50.562;7.272;2023-02-16T14:13:43;100964.00;;;7.54;nan
36980;BME280;22891;50.562;7.272;2023-02-16T14:19:32;100960.00;;;7.61;nan
36980;BME280;22891;50.562;7.272;2023-02-16T14:22:08;100948.00;;;7.61;nan
36980;BME280;22891;50.562;7.272;2023-02-16T14:24:37;100925.00;;;7.73;nan
36980;BME280;22891;50.562;7.272;2023-02-16T14:27:09;100919.00;;;7.80;nan
36980;BME280;22891;50.562;7.272;2023-02-16T14:29:52;100899.00;;;7.79;nan
36980;BME280;22891;50.562;7.272;2023-02-16T14:32:25;100886.00;;;7.59;nan
36980;BME280;22891;50.562;7.272;2023-02-16T14:35:12;100883.00;;;7.57;nan
36980;BME280;22891;50.562;7.272;2023-02-16T14:37:54;100866.00;;;7.77;nan
36980;BME280;22891;50.562;7.272;2023-02-16T14:42:13;100868.00;;;7.89;nan
36980;BME280;22891;50.562;7.272;2023-02-16T14:57:21;100859.00;;;8.18;nan
36980;BME280;22891;50.562;7.272;2023-02-16T15:00:03;100919.00;;;8.22;nan
36980;BME280;22891;50.562;7.272;2023-02-16T15:02:40;100919.00;;;8.29;nan
36980;BME280;22891;50.562;7.272;2023-02-16T15:05:27;100949.00;;;8.37;nan
36980;BME280;22891;50.562;7.272;2023-02-16T15:10:49;100977.00;;;8.60;nan
36980;BME280;22891;50.562;7.272;2023-02-16T15:13:36;101024.00;;;8.63;nan
36980;BME280;22891;50.562;7.272;2023-02-16T15:16:04;101034.00;;;8.65;nan
36980;BME280;22891;50.562;7.272;2023-02-16T15:18:39;101046.00;;;8.61;nan
36980;BME280;22891;50.562;7.272;2023-02-16T15:21:16;101050.00;;;8.72;nan
36980;BME280;22891;50.562;7.272;2023-02-16T15:23:52;101069.00;;;8.74;nan
36980;BME280;22891;50.562;7.272;2023-02-16T15:26:25;101074.00;;;8.82;nan
36980;BME280;22891;50.562;7.272;2023-02-16T15:28:57;101079.00;;;8.97;nan
36980;BME280;22891;50.562;7.272;2023-02-16T15:31:34;101128.00;;;8.92;nan
36980;BME280;22891;50.562;7.272;2023-02-16T15:34:07;101155.00;;;9.02;nan
36980;BME280;22891;50.562;7.272;2023-02-16T15:36:42;101159.00;;;8.77;nan
36980;BME280;22891;50.562;7.272;2023-02-16T15:39:14;101143.00;;;8.72;nan
36980;BME280;22891;50.562;7.272;2023-02-16T15:41:46;101140.00;;;8.74;nan
36980;BME280;22891;50.562;7.272;2023-02-16T15:44:33;101134.00;;;8.62;nan
36980;BME280;22891;50.562;7.272;2023-02-16T15:47:12;101124.00;;;8.55;nan
36980;BME280;22891;50.562;7.272;2023-02-16T15:49:38;101108.00;;;8.57;nan
36980;BME280;22891;50.562;7.272;2023-02-16T15:52:11;101111.00;;;8.53;nan
36980;BME280;22891;50.562;7.272;2023-02-16T15:54:39;101100.00;;;8.50;nan
36980;BME280;22891;50.562;7.272;2023-02-16T16:00:17;101106.00;;;8.41;nan
36980;BME280;22891;50.562;7.272;2023-02-16T16:02:54;101106.00;;;8.56;nan
36980;BME280;22891;50.562;7.272;2023-02-16T16:05:30;101093.00;;;8.55;nan
36980;BME280;22891;50.562;7.272;2023-02-16T16:08:00;101088.00;;;8.52;nan
36980;BME280;22891;50.562;7.272;2023-02-16T16:10:32;101097.00;;;8.73;nan
36980;BME280;22891;50.562;7.272;2023-02-16T16:13:05;101099.00;;;8.49;nan
36980;BME280;22891;50.562;7.272;2023-02-16T16:15:44;101106.00;;;8.53;nan
36980;BME280;22891;50.562;7.272;2023-02-16T16:24:59;101101.00;;;8.57;nan
36980;BME280;22891;50.562;7.272;2023-02-16T16:27:32;101156.00;;;8.55;nan
36980;BME280;22891;50.562;7.272;2023-02-16T16:31:11;101163.00;;;8.58;nan
36980;BME280;22891;50.562;7.272;2023-02-16T17:03:51;100952.00;;;7.90;nan
36980;BME280;22891;50.562;7.272;2023-02-16T17:06:18;100802.00;;;7.62;nan
36980;BME280;22891;50.562;7.272;2023-02-16T17:08:45;100900.00;;;7.35;nan
36980;BME280;22891;50.562;7.272;2023-02-16T17:11:32;100873.00;;;7.42;nan
36980;BME280;22891;50.562;7.272;2023-02-16T17:14:13;100880.00;;;7.49;nan
36980;BME280;22891;50.562;7.272;2023-02-16T17:16:43;100870.00;;;7.52;nan
36980;BME280;22891;50.562;7.272;2023-02-16T17:19:14;100915.00;;;7.73;nan
36980;BME280;22891;50.562;7.272;2023-02-16T17:21:40;100946.00;;;7.85;nan
36980;BME280;22891;50.562;7.272;2023-02-16T17:24:06;100972.00;;;7.91;nan
36980;BME280;22891;50.562;7.272;2023-02-16T17:26:32;101004.00;;;8.08;nan
36980;BME280;22891;50.562;7.272;2023-02-16T17:28:58;101036.00;;;8.16;nan
36980;BME280;22891;50.562;7.272;2023-02-16T17:31:24;101071.00;;;8.23;nan
36980;BME280;22891;50.562;7.272;2023-02-16T17:33:50;101088.00;;;8.23;nan
36980;BME280;22891;50.562;7.272;2023-02-16T17:36:16;101088.00;;;8.29;nan
36980;BME280;22891;50.562;7.272;2023-02-16T17:38:42;101100.00;;;8.24;nan
36980;BME280;22891;50.562;7.272;2023-02-16T17:41:28;101105.00;;;8.31;nan
36980;BME280;22891;50.562;7.272;2023-02-16T17:43:54;101115.00;;;8.31;nan
36980;BME280;22891;50.562;7.272;2023-02-16T17:46:20;101115.00;;;8.24;nan
